UAL176 PTKK-PGUM
Flight info
| Callsign | UAL176 |
|---|---|
| Flight time | 1h 25m |
| Altitude | 36000 |
| Route | WUMVE GUNSS |
| Aircraft | B38M/M-SDE1FGHILORVWXY/HB1 |
Departure
| Time | 2026-05-05 23:28 |
|---|---|
| Airport | Chuuk International Airport (PTKK) |
Arrival
| Time | 2026-05-06 00:53 |
|---|---|
| Airport | Antonio B. Won Pat International Airport (PGUM) |
| Time | Latitude | Longitude | Altitude | Speed | Heading |
|---|---|---|---|---|---|
| 2026-05-05 22:57 | 7.45789 | 151.84086 | 24 ft | 0 kts | 117° |
| 2026-05-05 23:26 | 7.45788 | 151.84093 | 24 ft | 3 kts | 90° |
| 2026-05-05 23:26 | 7.45817 | 151.84100 | 24 ft | 9 kts | 332° |
| 2026-05-05 23:26 | 7.45885 | 151.84030 | 26 ft | 14 kts | 277° |
| 2026-05-05 23:27 | 7.45810 | 151.83917 | 21 ft | 26 kts | 225° |
| 2026-05-05 23:27 | 7.45674 | 151.83782 | 21 ft | 8 kts | 215° |
| 2026-05-05 23:27 | 7.45609 | 151.83733 | 20 ft | 13 kts | 271° |
| 2026-05-05 23:27 | 7.45634 | 151.83718 | 19 ft | 3 kts | 39° |
| 2026-05-05 23:28 | 7.45662 | 151.83760 | 22 ft | 12 kts | 47° |
| 2026-05-05 23:28 | 7.45863 | 151.83968 | 22 ft | 84 kts | 46° |
| 2026-05-05 23:28 | 7.46473 | 151.84598 | 22 ft | 163 kts | 46° |
| 2026-05-05 23:28 | 7.47338 | 151.85459 | 740 ft | 179 kts | 44° |
| 2026-05-05 23:29 | 7.48383 | 151.86123 | 1833 ft | 184 kts | 21° |
| 2026-05-05 23:29 | 7.49702 | 151.86288 | 2652 ft | 197 kts | 7° |
| 2026-05-05 23:29 | 7.51126 | 151.86315 | 3400 ft | 214 kts | 5° |
| 2026-05-05 23:29 | 7.52660 | 151.86310 | 4209 ft | 228 kts | 4° |
| 2026-05-05 23:30 | 7.54316 | 151.86191 | 4936 ft | 253 kts | 346° |
| 2026-05-05 23:30 | 7.55853 | 151.85204 | 5641 ft | 277 kts | 313° |
| 2026-05-05 23:30 | 7.57086 | 151.83646 | 6439 ft | 292 kts | 310° |
| 2026-05-05 23:30 | 7.58119 | 151.82393 | 7188 ft | 295 kts | 311° |
| 2026-05-05 23:31 | 7.59447 | 151.80801 | 8175 ft | 299 kts | 310° |
| 2026-05-05 23:31 | 7.60804 | 151.79188 | 9157 ft | 304 kts | 310° |
| 2026-05-05 23:31 | 7.62183 | 151.77560 | 10093 ft | 309 kts | 310° |
| 2026-05-05 23:31 | 7.63616 | 151.75876 | 10702 ft | 325 kts | 310° |
| 2026-05-05 23:32 | 7.65125 | 151.74109 | 11349 ft | 338 kts | 310° |
| 2026-05-05 23:32 | 7.66673 | 151.72295 | 12174 ft | 343 kts | 310° |
| 2026-05-05 23:32 | 7.68234 | 151.70458 | 13039 ft | 347 kts | 310° |
| 2026-05-05 23:32 | 7.69818 | 151.68594 | 13804 ft | 352 kts | 310° |
| 2026-05-05 23:33 | 7.71422 | 151.66707 | 14522 ft | 356 kts | 310° |
| 2026-05-05 23:33 | 7.73039 | 151.64803 | 15224 ft | 360 kts | 310° |
| 2026-05-05 23:33 | 7.74676 | 151.62876 | 15911 ft | 364 kts | 310° |
| 2026-05-05 23:33 | 7.76330 | 151.60928 | 16592 ft | 367 kts | 310° |
| 2026-05-05 23:34 | 7.77998 | 151.58963 | 17256 ft | 371 kts | 310° |
| 2026-05-05 23:34 | 7.79693 | 151.56966 | 17911 ft | 375 kts | 310° |
| 2026-05-05 23:34 | 7.81395 | 151.54961 | 18500 ft | 379 kts | 310° |
| 2026-05-05 23:34 | 7.83117 | 151.52933 | 19069 ft | 381 kts | 310° |
| 2026-05-05 23:35 | 7.84844 | 151.50898 | 19616 ft | 384 kts | 310° |
| 2026-05-05 23:35 | 7.86587 | 151.48843 | 20157 ft | 387 kts | 309° |
| 2026-05-05 23:35 | 7.88346 | 151.46771 | 20698 ft | 390 kts | 309° |
| 2026-05-05 23:35 | 7.90115 | 151.44686 | 21228 ft | 393 kts | 309° |
| 2026-05-05 23:36 | 7.91896 | 151.42586 | 21760 ft | 395 kts | 309° |
| 2026-05-05 23:36 | 7.93687 | 151.40473 | 22274 ft | 398 kts | 309° |
| 2026-05-05 23:36 | 7.95491 | 151.38345 | 22780 ft | 401 kts | 309° |
| 2026-05-05 23:36 | 7.97311 | 151.36200 | 23276 ft | 404 kts | 309° |
| 2026-05-05 23:37 | 7.99141 | 151.34040 | 23734 ft | 406 kts | 309° |
| 2026-05-05 23:37 | 8.00981 | 151.31870 | 24133 ft | 408 kts | 309° |
| 2026-05-05 23:37 | 8.02831 | 151.29686 | 24543 ft | 411 kts | 309° |
| 2026-05-05 23:37 | 8.04693 | 151.27488 | 24967 ft | 413 kts | 309° |
| 2026-05-05 23:38 | 8.06559 | 151.25285 | 25360 ft | 415 kts | 309° |
| 2026-05-05 23:38 | 8.08442 | 151.23062 | 25762 ft | 417 kts | 309° |
| 2026-05-05 23:38 | 8.10332 | 151.20830 | 26162 ft | 419 kts | 309° |
| 2026-05-05 23:38 | 8.12233 | 151.18585 | 26567 ft | 421 kts | 309° |
| 2026-05-05 23:39 | 8.14141 | 151.16332 | 26949 ft | 424 kts | 309° |
| 2026-05-05 23:39 | 8.16058 | 151.14067 | 27343 ft | 426 kts | 309° |
| 2026-05-05 23:39 | 8.17985 | 151.11789 | 27737 ft | 427 kts | 309° |
| 2026-05-05 23:39 | 8.19922 | 151.09501 | 28118 ft | 429 kts | 308° |
| 2026-05-05 23:40 | 8.21861 | 151.07209 | 28505 ft | 431 kts | 309° |
| 2026-05-05 23:40 | 8.23811 | 151.04903 | 28871 ft | 433 kts | 308° |
| 2026-05-05 23:40 | 8.25769 | 151.02587 | 29247 ft | 434 kts | 308° |
| 2026-05-05 23:40 | 8.27730 | 151.00268 | 29611 ft | 436 kts | 308° |
| 2026-05-05 23:41 | 8.29704 | 150.97933 | 29958 ft | 437 kts | 308° |
| 2026-05-05 23:41 | 8.31679 | 150.95595 | 30267 ft | 438 kts | 308° |
| 2026-05-05 23:41 | 8.33664 | 150.93247 | 30562 ft | 440 kts | 308° |
| 2026-05-05 23:41 | 8.35653 | 150.90893 | 30840 ft | 442 kts | 308° |
| 2026-05-05 23:42 | 8.37650 | 150.88530 | 31116 ft | 443 kts | 308° |
| 2026-05-05 23:42 | 8.39659 | 150.86151 | 31385 ft | 445 kts | 308° |
| 2026-05-05 23:42 | 8.41671 | 150.83769 | 31656 ft | 447 kts | 308° |
| 2026-05-05 23:42 | 8.43692 | 150.81375 | 31921 ft | 449 kts | 308° |
| 2026-05-05 23:43 | 8.45721 | 150.78971 | 32176 ft | 451 kts | 308° |
| 2026-05-05 23:43 | 8.47759 | 150.76557 | 32431 ft | 452 kts | 308° |
| 2026-05-05 23:43 | 8.49803 | 150.74134 | 32683 ft | 454 kts | 308° |
| 2026-05-05 23:43 | 8.51853 | 150.71703 | 32904 ft | 457 kts | 308° |
| 2026-05-05 23:44 | 8.53919 | 150.69254 | 33151 ft | 459 kts | 308° |
| 2026-05-05 23:44 | 8.55992 | 150.66796 | 33373 ft | 461 kts | 308° |
| 2026-05-05 23:44 | 8.58080 | 150.64320 | 33605 ft | 463 kts | 308° |
| 2026-05-05 23:44 | 8.60170 | 150.61841 | 33836 ft | 465 kts | 308° |
| 2026-05-05 23:45 | 8.62269 | 150.59351 | 34080 ft | 466 kts | 308° |
| 2026-05-05 23:45 | 8.63660 | 150.57699 | 34245 ft | 466 kts | 308° |
| 2026-05-05 23:45 | 8.65783 | 150.55178 | 34511 ft | 465 kts | 308° |
| 2026-05-05 23:45 | 8.67854 | 150.52718 | 34792 ft | 465 kts | 308° |
| 2026-05-05 23:46 | 8.69974 | 150.50201 | 35062 ft | 465 kts | 308° |
| 2026-05-05 23:46 | 8.72041 | 150.47745 | 35325 ft | 464 kts | 308° |
| 2026-05-05 23:46 | 8.74130 | 150.45262 | 35605 ft | 464 kts | 308° |
| 2026-05-05 23:46 | 8.76219 | 150.42780 | 35847 ft | 464 kts | 308° |
| 2026-05-05 23:47 | 8.80393 | 150.37818 | 35917 ft | 461 kts | 308° |
| 2026-05-05 23:47 | 8.84548 | 150.32878 | 35913 ft | 461 kts | 308° |
| 2026-05-05 23:48 | 8.88705 | 150.27935 | 35911 ft | 462 kts | 308° |
| 2026-05-05 23:48 | 8.92866 | 150.22985 | 35909 ft | 462 kts | 308° |
| 2026-05-05 23:49 | 8.97034 | 150.18023 | 35911 ft | 463 kts | 308° |
| 2026-05-05 23:49 | 9.01205 | 150.13057 | 35908 ft | 463 kts | 308° |
| 2026-05-05 23:50 | 9.05379 | 150.08086 | 35911 ft | 463 kts | 308° |
| 2026-05-05 23:50 | 9.09551 | 150.03115 | 35910 ft | 463 kts | 308° |
| 2026-05-05 23:51 | 9.13723 | 149.98142 | 35910 ft | 463 kts | 308° |
| 2026-05-05 23:51 | 9.17888 | 149.93174 | 35911 ft | 463 kts | 308° |
| 2026-05-05 23:52 | 9.22079 | 149.88175 | 35910 ft | 462 kts | 308° |
| 2026-05-05 23:52 | 9.26208 | 149.83247 | 35914 ft | 462 kts | 308° |
| 2026-05-05 23:53 | 9.30365 | 149.78284 | 35914 ft | 462 kts | 308° |
| 2026-05-05 23:53 | 9.34520 | 149.73321 | 35913 ft | 462 kts | 308° |
| 2026-05-05 23:54 | 9.38669 | 149.68362 | 35916 ft | 461 kts | 308° |
| 2026-05-05 23:54 | 9.42817 | 149.63405 | 35915 ft | 461 kts | 308° |
| 2026-05-05 23:55 | 9.46988 | 149.58417 | 35917 ft | 461 kts | 308° |
| 2026-05-05 23:55 | 9.51136 | 149.53454 | 35917 ft | 461 kts | 308° |
| 2026-05-05 23:56 | 9.55255 | 149.48524 | 35912 ft | 461 kts | 308° |
| 2026-05-05 23:56 | 9.59399 | 149.43563 | 35914 ft | 461 kts | 308° |
| 2026-05-05 23:57 | 9.63541 | 149.38601 | 35917 ft | 461 kts | 308° |
| 2026-05-05 23:57 | 9.67678 | 149.33643 | 35918 ft | 461 kts | 308° |
| 2026-05-05 23:58 | 9.71816 | 149.28681 | 35919 ft | 461 kts | 308° |
| 2026-05-05 23:58 | 9.75954 | 149.23719 | 35919 ft | 461 kts | 308° |
| 2026-05-05 23:59 | 9.80098 | 149.18746 | 35917 ft | 462 kts | 308° |
| 2026-05-05 23:59 | 9.84252 | 149.13760 | 35918 ft | 463 kts | 308° |
| 2026-05-06 00:00 | 9.88413 | 149.08763 | 35920 ft | 464 kts | 308° |
| 2026-05-06 00:00 | 9.92588 | 149.03748 | 35916 ft | 466 kts | 308° |
| 2026-05-06 00:01 | 9.96806 | 148.98678 | 35917 ft | 468 kts | 308° |
| 2026-05-06 00:01 | 10.01011 | 148.93622 | 35919 ft | 470 kts | 308° |
| 2026-05-06 00:02 | 10.05233 | 148.88544 | 35921 ft | 471 kts | 309° |
| 2026-05-06 00:02 | 10.09461 | 148.83454 | 35920 ft | 473 kts | 309° |
| 2026-05-06 00:03 | 10.13707 | 148.78342 | 35919 ft | 474 kts | 309° |
| 2026-05-06 00:03 | 10.17962 | 148.73215 | 35917 ft | 476 kts | 309° |
| 2026-05-06 00:04 | 10.22235 | 148.68067 | 35918 ft | 477 kts | 309° |
| 2026-05-06 00:04 | 10.26512 | 148.62910 | 35916 ft | 478 kts | 309° |
| 2026-05-06 00:05 | 10.32938 | 148.55158 | 35920 ft | 479 kts | 309° |
| 2026-05-06 00:06 | 10.37225 | 148.49982 | 35920 ft | 479 kts | 309° |
| 2026-05-06 00:06 | 10.41515 | 148.44801 | 35920 ft | 480 kts | 309° |
| 2026-05-06 00:07 | 10.45809 | 148.39613 | 35924 ft | 480 kts | 309° |
| 2026-05-06 00:07 | 10.50095 | 148.34432 | 35919 ft | 479 kts | 309° |
| 2026-05-06 00:08 | 10.54384 | 148.29246 | 35918 ft | 479 kts | 309° |
| 2026-05-06 00:08 | 10.58667 | 148.24063 | 35922 ft | 479 kts | 309° |
| 2026-05-06 00:09 | 10.62954 | 148.18874 | 35918 ft | 479 kts | 309° |
| 2026-05-06 00:09 | 10.67234 | 148.13689 | 35921 ft | 479 kts | 309° |
| 2026-05-06 00:10 | 10.71522 | 148.08494 | 35923 ft | 480 kts | 309° |
| 2026-05-06 00:10 | 10.75654 | 148.03231 | 35924 ft | 479 kts | 307° |
| 2026-05-06 00:11 | 10.79815 | 147.97884 | 35921 ft | 479 kts | 307° |
| 2026-05-06 00:11 | 10.83924 | 147.92610 | 35918 ft | 479 kts | 307° |
| 2026-05-06 00:12 | 10.88059 | 147.87298 | 35918 ft | 479 kts | 307° |
| 2026-05-06 00:12 | 10.92189 | 147.81991 | 35920 ft | 478 kts | 307° |
| 2026-05-06 00:13 | 10.96313 | 147.76689 | 35920 ft | 478 kts | 307° |
| 2026-05-06 00:13 | 11.00438 | 147.71383 | 35920 ft | 478 kts | 307° |
| 2026-05-06 00:14 | 11.04557 | 147.66082 | 35920 ft | 477 kts | 307° |
| 2026-05-06 00:14 | 11.08678 | 147.60776 | 35921 ft | 477 kts | 307° |
| 2026-05-06 00:15 | 11.12792 | 147.55476 | 35918 ft | 477 kts | 307° |
| 2026-05-06 00:15 | 11.16906 | 147.50175 | 35918 ft | 477 kts | 307° |
| 2026-05-06 00:16 | 11.21016 | 147.44874 | 35920 ft | 477 kts | 307° |
| 2026-05-06 00:16 | 11.25120 | 147.39579 | 35919 ft | 476 kts | 307° |
| 2026-05-06 00:17 | 11.29224 | 147.34282 | 35919 ft | 476 kts | 307° |
| 2026-05-06 00:17 | 11.33322 | 147.28989 | 35919 ft | 475 kts | 307° |
| 2026-05-06 00:18 | 11.37406 | 147.23711 | 35918 ft | 474 kts | 307° |
| 2026-05-06 00:18 | 11.41481 | 147.18444 | 35916 ft | 472 kts | 307° |
| 2026-05-06 00:19 | 11.45545 | 147.13187 | 35919 ft | 471 kts | 307° |
| 2026-05-06 00:19 | 11.49593 | 147.07947 | 35920 ft | 470 kts | 307° |
| 2026-05-06 00:20 | 11.53634 | 147.02715 | 35918 ft | 469 kts | 307° |
| 2026-05-06 00:20 | 11.57658 | 146.97502 | 35919 ft | 467 kts | 307° |
| 2026-05-06 00:21 | 11.61678 | 146.92291 | 35919 ft | 467 kts | 307° |
| 2026-05-06 00:21 | 11.65684 | 146.87096 | 35922 ft | 466 kts | 307° |
| 2026-05-06 00:22 | 11.69679 | 146.81912 | 35918 ft | 464 kts | 307° |
| 2026-05-06 00:22 | 11.73667 | 146.76735 | 35919 ft | 463 kts | 307° |
| 2026-05-06 00:23 | 11.77638 | 146.71576 | 35922 ft | 462 kts | 307° |
| 2026-05-06 00:23 | 11.81602 | 146.66425 | 35921 ft | 461 kts | 307° |
| 2026-05-06 00:24 | 11.85563 | 146.61274 | 35922 ft | 461 kts | 307° |
| 2026-05-06 00:24 | 11.89515 | 146.56133 | 35922 ft | 461 kts | 307° |
| 2026-05-06 00:25 | 11.93471 | 146.50984 | 35923 ft | 460 kts | 307° |
| 2026-05-06 00:25 | 11.97418 | 146.45843 | 35927 ft | 460 kts | 307° |
| 2026-05-06 00:26 | 12.01359 | 146.40709 | 35923 ft | 459 kts | 307° |
| 2026-05-06 00:26 | 12.04628 | 146.36447 | 35930 ft | 458 kts | 307° |
| 2026-05-06 00:27 | 12.08553 | 146.31328 | 35835 ft | 453 kts | 307° |
| 2026-05-06 00:27 | 12.10494 | 146.28795 | 35208 ft | 453 kts | 307° |
| 2026-05-06 00:27 | 12.12440 | 146.26256 | 34538 ft | 454 kts | 307° |
| 2026-05-06 00:27 | 12.14382 | 146.23721 | 34023 ft | 452 kts | 307° |
| 2026-05-06 00:28 | 12.16312 | 146.21201 | 33481 ft | 449 kts | 307° |
| 2026-05-06 00:28 | 12.18229 | 146.18696 | 32939 ft | 446 kts | 307° |
| 2026-05-06 00:28 | 12.20134 | 146.16207 | 32433 ft | 442 kts | 307° |
| 2026-05-06 00:28 | 12.22020 | 146.13742 | 31927 ft | 439 kts | 307° |
| 2026-05-06 00:29 | 12.23897 | 146.11289 | 31432 ft | 436 kts | 307° |
| 2026-05-06 00:29 | 12.25759 | 146.08854 | 30944 ft | 433 kts | 307° |
| 2026-05-06 00:29 | 12.27610 | 146.06433 | 30468 ft | 431 kts | 307° |
| 2026-05-06 00:29 | 12.29448 | 146.04029 | 29982 ft | 428 kts | 307° |
| 2026-05-06 00:30 | 12.31281 | 146.01631 | 29430 ft | 426 kts | 307° |
| 2026-05-06 00:30 | 12.33094 | 145.99257 | 28940 ft | 422 kts | 307° |
| 2026-05-06 00:30 | 12.34894 | 145.96902 | 28495 ft | 418 kts | 307° |
| 2026-05-06 00:30 | 12.36671 | 145.94574 | 28056 ft | 414 kts | 308° |
| 2026-05-06 00:31 | 12.38435 | 145.92263 | 27615 ft | 410 kts | 308° |
| 2026-05-06 00:31 | 12.40187 | 145.89969 | 27182 ft | 407 kts | 308° |
| 2026-05-06 00:31 | 12.41921 | 145.87696 | 26755 ft | 404 kts | 308° |
| 2026-05-06 00:31 | 12.43646 | 145.85435 | 26335 ft | 401 kts | 308° |
| 2026-05-06 00:32 | 12.45358 | 145.83190 | 25924 ft | 399 kts | 308° |
| 2026-05-06 00:32 | 12.47056 | 145.80963 | 25511 ft | 396 kts | 308° |
| 2026-05-06 00:32 | 12.48750 | 145.78741 | 25107 ft | 394 kts | 308° |
| 2026-05-06 00:32 | 12.50432 | 145.76534 | 24696 ft | 393 kts | 308° |
| 2026-05-06 00:33 | 12.52106 | 145.74337 | 24295 ft | 391 kts | 308° |
| 2026-05-06 00:33 | 12.53776 | 145.72145 | 23897 ft | 390 kts | 308° |
| 2026-05-06 00:33 | 12.55439 | 145.69961 | 23504 ft | 389 kts | 309° |
| 2026-05-06 00:33 | 12.57100 | 145.67781 | 23026 ft | 387 kts | 309° |
| 2026-05-06 00:34 | 12.58750 | 145.65613 | 22607 ft | 385 kts | 309° |
| 2026-05-06 00:34 | 12.60389 | 145.63459 | 22212 ft | 382 kts | 309° |
| 2026-05-06 00:34 | 12.62017 | 145.61319 | 21827 ft | 379 kts | 309° |
| 2026-05-06 00:34 | 12.63631 | 145.59197 | 21443 ft | 377 kts | 309° |
| 2026-05-06 00:35 | 12.65237 | 145.57086 | 21064 ft | 375 kts | 309° |
| 2026-05-06 00:35 | 12.66831 | 145.54990 | 20687 ft | 373 kts | 309° |
| 2026-05-06 00:35 | 12.68420 | 145.52900 | 20307 ft | 371 kts | 309° |
| 2026-05-06 00:35 | 12.70000 | 145.50821 | 19934 ft | 369 kts | 310° |
| 2026-05-06 00:36 | 12.71574 | 145.48749 | 19555 ft | 368 kts | 310° |
| 2026-05-06 00:36 | 12.73144 | 145.46683 | 19175 ft | 367 kts | 310° |
| 2026-05-06 00:36 | 12.74713 | 145.44618 | 18800 ft | 367 kts | 310° |
| 2026-05-06 00:36 | 12.76280 | 145.42554 | 18428 ft | 367 kts | 310° |
| 2026-05-06 00:37 | 12.77846 | 145.40491 | 18028 ft | 367 kts | 310° |
| 2026-05-06 00:37 | 12.79412 | 145.38428 | 17608 ft | 366 kts | 310° |
| 2026-05-06 00:37 | 12.80970 | 145.36374 | 17228 ft | 364 kts | 310° |
| 2026-05-06 00:37 | 12.82521 | 145.34329 | 16852 ft | 362 kts | 310° |
| 2026-05-06 00:38 | 12.84059 | 145.32303 | 16483 ft | 360 kts | 310° |
| 2026-05-06 00:38 | 12.85592 | 145.30281 | 16117 ft | 358 kts | 310° |
| 2026-05-06 00:38 | 12.87117 | 145.28270 | 15747 ft | 357 kts | 310° |
| 2026-05-06 00:38 | 12.88634 | 145.26267 | 15385 ft | 355 kts | 310° |
| 2026-05-06 00:39 | 12.90149 | 145.24270 | 15016 ft | 354 kts | 310° |
| 2026-05-06 00:39 | 12.91656 | 145.22280 | 14647 ft | 353 kts | 310° |
| 2026-05-06 00:39 | 12.93161 | 145.20294 | 14277 ft | 352 kts | 310° |
| 2026-05-06 00:39 | 12.94660 | 145.18313 | 13922 ft | 351 kts | 310° |
| 2026-05-06 00:40 | 12.96158 | 145.16335 | 13526 ft | 351 kts | 310° |
| 2026-05-06 00:40 | 12.97653 | 145.14361 | 13124 ft | 350 kts | 310° |
| 2026-05-06 00:40 | 12.99142 | 145.12393 | 12756 ft | 348 kts | 310° |
| 2026-05-06 00:40 | 13.00621 | 145.10439 | 12394 ft | 346 kts | 311° |
| 2026-05-06 00:41 | 13.02092 | 145.08494 | 12030 ft | 344 kts | 311° |
| 2026-05-06 00:41 | 13.03554 | 145.06561 | 11672 ft | 342 kts | 310° |
| 2026-05-06 00:41 | 13.05014 | 145.04631 | 11315 ft | 341 kts | 311° |
| 2026-05-06 00:41 | 13.06462 | 145.02715 | 10957 ft | 339 kts | 311° |
| 2026-05-06 00:42 | 13.07903 | 145.00808 | 10600 ft | 338 kts | 310° |
| 2026-05-06 00:42 | 13.09340 | 144.98907 | 10246 ft | 337 kts | 311° |
| 2026-05-06 00:42 | 13.10768 | 144.97017 | 10019 ft | 332 kts | 311° |
| 2026-05-06 00:42 | 13.12175 | 144.95154 | 9689 ft | 330 kts | 311° |
| 2026-05-06 00:43 | 13.13582 | 144.93292 | 9299 ft | 330 kts | 311° |
| 2026-05-06 00:43 | 13.14986 | 144.91432 | 8944 ft | 329 kts | 311° |
| 2026-05-06 00:43 | 13.16385 | 144.89580 | 8581 ft | 328 kts | 311° |
| 2026-05-06 00:43 | 13.17781 | 144.87731 | 8225 ft | 327 kts | 311° |
| 2026-05-06 00:44 | 13.19170 | 144.85890 | 7876 ft | 325 kts | 311° |
| 2026-05-06 00:44 | 13.20552 | 144.84058 | 7526 ft | 324 kts | 311° |
| 2026-05-06 00:44 | 13.21929 | 144.82233 | 7170 ft | 322 kts | 311° |
| 2026-05-06 00:44 | 13.23296 | 144.80420 | 6829 ft | 321 kts | 311° |
| 2026-05-06 00:45 | 13.24647 | 144.78628 | 6532 ft | 310 kts | 311° |
| 2026-05-06 00:45 | 13.25930 | 144.76925 | 6207 ft | 294 kts | 312° |
| 2026-05-06 00:45 | 13.27148 | 144.75309 | 5857 ft | 279 kts | 312° |
| 2026-05-06 00:45 | 13.28308 | 144.73768 | 5560 ft | 266 kts | 313° |
| 2026-05-06 00:46 | 13.29411 | 144.72304 | 5273 ft | 252 kts | 313° |
| 2026-05-06 00:46 | 13.30446 | 144.70928 | 5150 ft | 234 kts | 314° |
| 2026-05-06 00:46 | 13.31401 | 144.69659 | 5043 ft | 217 kts | 314° |
| 2026-05-06 00:46 | 13.32291 | 144.68479 | 4921 ft | 202 kts | 314° |
| 2026-05-06 00:47 | 13.33137 | 144.67358 | 4834 ft | 198 kts | 314° |
| 2026-05-06 00:47 | 13.33994 | 144.66219 | 4701 ft | 203 kts | 315° |
| 2026-05-06 00:47 | 13.34860 | 144.65076 | 4557 ft | 204 kts | 314° |
| 2026-05-06 00:47 | 13.35736 | 144.63911 | 4507 ft | 207 kts | 314° |
| 2026-05-06 00:48 | 13.36626 | 144.62746 | 4373 ft | 206 kts | 318° |
| 2026-05-06 00:48 | 13.37756 | 144.61964 | 4099 ft | 189 kts | 354° |
| 2026-05-06 00:48 | 13.38988 | 144.61927 | 3822 ft | 170 kts | 26° |
| 2026-05-06 00:48 | 13.39966 | 144.62485 | 3637 ft | 157 kts | 51° |
| 2026-05-06 00:49 | 13.40607 | 144.63356 | 3466 ft | 152 kts | 63° |
| 2026-05-06 00:49 | 13.41147 | 144.64288 | 3286 ft | 152 kts | 64° |
| 2026-05-06 00:49 | 13.41662 | 144.65233 | 3077 ft | 151 kts | 66° |
| 2026-05-06 00:49 | 13.42156 | 144.66181 | 2864 ft | 149 kts | 67° |
| 2026-05-06 00:50 | 13.42630 | 144.67124 | 2654 ft | 148 kts | 68° |
| 2026-05-06 00:50 | 13.43089 | 144.68063 | 2432 ft | 145 kts | 69° |
| 2026-05-06 00:50 | 13.43492 | 144.68898 | 2211 ft | 145 kts | 68° |
| 2026-05-06 00:50 | 13.43908 | 144.69775 | 2043 ft | 131 kts | 66° |
| 2026-05-06 00:51 | 13.44262 | 144.70494 | 1927 ft | 97 kts | 68° |
| 2026-05-06 00:51 | 13.44610 | 144.71184 | 1470 ft | 131 kts | 65° |
| 2026-05-06 00:51 | 13.45096 | 144.72129 | 1613 ft | 162 kts | 68° |
| 2026-05-06 00:51 | 13.45613 | 144.73243 | 1452 ft | 184 kts | 69° |
| 2026-05-06 00:52 | 13.46138 | 144.74477 | 1253 ft | 187 kts | 68° |
| 2026-05-06 00:52 | 13.46695 | 144.75704 | 951 ft | 183 kts | 68° |
| 2026-05-06 00:52 | 13.47206 | 144.76860 | 622 ft | 172 kts | 68° |
| 2026-05-06 00:52 | 13.47683 | 144.77921 | 371 ft | 156 kts | 66° |
| 2026-05-06 00:53 | 13.48112 | 144.78872 | 281 ft | 135 kts | 68° |
| 2026-05-06 00:53 | 13.48469 | 144.79666 | 276 ft | 106 kts | 65° |
| 2026-05-06 00:53 | 13.48717 | 144.80205 | 299 ft | 60 kts | 64° |
| 2026-05-06 00:53 | 13.48858 | 144.80397 | 302 ft | 15 kts | 355° |
| 2026-05-06 00:54 | 13.48930 | 144.80369 | 299 ft | 2 kts | 336° |
| 2026-05-06 00:54 | 13.48937 | 144.80366 | 301 ft | 0 kts | 339° |
| 2026-05-06 00:55 | 13.48956 | 144.80363 | 298 ft | 7 kts | 7° |
| 2026-05-06 00:55 | 13.48990 | 144.80412 | 296 ft | 12 kts | 68° |
| 2026-05-06 00:55 | 13.49052 | 144.80512 | 300 ft | 16 kts | 62° |
| 2026-05-06 00:55 | 13.49092 | 144.80591 | 303 ft | 4 kts | 63° |
| 2026-05-06 00:56 | 13.49125 | 144.80614 | 302 ft | 8 kts | 4° |
| 2026-05-06 00:56 | 13.49183 | 144.80587 | 301 ft | 2 kts | 330° |
| 2026-05-06 00:56 | 13.49194 | 144.80580 | 298 ft | 0 kts | 331° |